Time;durP1;ratioP1;P1;durP2;ratioP2;P2;SDS_P1;SDS_P2;PMS_P1;PMS_P2;Temp;Humidity;BMP_temperature;BMP_pressure;BME280_temperature;BME280_humidity;BME280_pressure;Samples;Min_cycle;Max_cycle;Signal;HPM_P1;HPM_P2
2023/06/08 00:00:27;;;;;;;;;;;;;;;23.21;65.55;98667.91;2081071;28;20027;-64
2023/06/08 00:01:28;;;;;;;;;;;;;;;23.20;65.63;98664.34;2090925;28;20021;-65
2023/06/08 00:02:30;;;;;;;;;;;;;;;23.23;65.78;98662.25;2090459;28;19969;-65
2023/06/08 00:03:31;;;;;;;;;;;;;;;23.20;65.75;98664.34;2089752;28;20043;-64
2023/06/08 00:04:33;;;;;;;;;;;;;;;23.22;65.47;98672.25;2090681;28;19921;-64
2023/06/08 00:05:43;;;;;;;;;;;;;;;23.21;65.82;98665.19;2090609;28;19929;-64
2023/06/08 00:06:44;;;;;;;;;;;;;;;23.20;65.76;98667.06;2086748;28;19928;-65
2023/06/08 00:07:46;;;;;;;;;;;;;;;23.20;65.81;98666.22;2090626;28;24197;-65
2023/06/08 00:08:48;;;;;;;;;;;;;;;23.20;65.68;98660.81;2087542;28;19966;-64
2023/06/08 00:09:50;;;;;;;;;;;;;;;23.21;66.12;98667.91;2088989;28;19924;-65
2023/06/08 00:10:52;;;;;;;;;;;;;;;23.19;66.20;98664.59;2090312;28;19943;-64
2023/06/08 00:11:55;;;;;;;;;;;;;;;23.22;66.11;98666.84;2090598;28;19928;-64
2023/06/08 00:12:56;;;;;;;;;;;;;;;23.22;65.81;98666.00;2090771;28;19929;-64
2023/06/08 00:13:57;;;;;;;;;;;;;;;23.23;65.76;98668.47;2090239;28;19962;-64
2023/06/08 00:14:59;;;;;;;;;;;;;;;23.22;66.26;98664.13;2090164;28;19927;-64
2023/06/08 00:16:03;;;;;;;;;;;;;;;23.23;66.23;98660.34;2088355;28;20046;-64
2023/06/08 00:17:05;;;;;;;;;;;;;;;23.21;66.39;98662.50;2088818;28;19981;-64
2023/06/08 00:18:08;;;;;;;;;;;;;;;23.24;66.52;98667.44;2086917;28;20514;-65
2023/06/08 00:19:10;;;;;;;;;;;;;;;23.23;66.75;98664.94;2089351;28;19974;-64
2023/06/08 00:20:11;;;;;;;;;;;;;;;23.23;66.16;98665.75;2084938;28;20031;-64
2023/06/08 00:21:13;;;;;;;;;;;;;;;23.23;66.78;98660.34;2085856;28;19935;-64
2023/06/08 00:22:13;;;;;;;;;;;;;;;23.22;66.47;98658.72;2087979;28;19925;-65
2023/06/08 00:23:15;;;;;;;;;;;;;;;23.23;66.25;98663.06;2087884;28;19946;-65
2023/06/08 00:24:17;;;;;;;;;;;;;;;23.24;66.58;98661.19;2085519;28;19924;-64
2023/06/08 00:25:18;;;;;;;;;;;;;;;23.23;66.45;98659.53;2089096;28;20317;-65
2023/06/08 00:26:19;;;;;;;;;;;;;;;23.24;66.54;98658.50;2088391;28;20014;-65
2023/06/08 00:27:20;;;;;;;;;;;;;;;23.22;66.86;98653.31;2090847;28;20111;-65
2023/06/08 00:28:21;;;;;;;;;;;;;;;23.20;66.82;98656.22;2089375;28;20408;-65
2023/06/08 00:29:22;;;;;;;;;;;;;;;23.22;66.75;98656.00;2089646;28;19920;-64
2023/06/08 00:30:23;;;;;;;;;;;;;;;23.22;66.71;98657.91;2083936;28;19947;-65
2023/06/08 00:31:24;;;;;;;;;;;;;;;23.21;66.64;98654.38;2090494;28;19924;-64
2023/06/08 00:32:25;;;;;;;;;;;;;;;23.23;66.82;98654.94;2085896;28;20004;-64
2023/06/08 00:33:28;;;;;;;;;;;;;;;23.23;66.69;98649.53;2091014;28;20494;-64
2023/06/08 00:34:28;;;;;;;;;;;;;;;23.23;66.73;98648.72;2091691;28;20011;-65
2023/06/08 00:35:30;;;;;;;;;;;;;;;23.23;66.67;98654.94;2091820;28;19924;-65
2023/06/08 00:36:30;;;;;;;;;;;;;;;23.24;66.70;98655.78;2091856;28;19920;-64
2023/06/08 00:37:32;;;;;;;;;;;;;;;23.24;66.82;98656.59;2091112;28;20425;-64
2023/06/08 00:38:33;;;;;;;;;;;;;;;23.24;66.80;98656.59;2089260;28;19924;-65
2023/06/08 00:39:35;;;;;;;;;;;;;;;23.23;67.67;98651.41;2090025;28;20007;-64
2023/06/08 00:40:35;;;;;;;;;;;;;;;23.23;66.83;98649.53;2091114;28;19928;-65
2023/06/08 00:41:37;;;;;;;;;;;;;;;23.23;67.11;98648.72;2090594;28;20001;-64
2023/06/08 00:42:38;;;;;;;;;;;;;;;23.24;66.96;98650.38;2091908;28;19927;-64
2023/06/08 00:43:39;;;;;;;;;;;;;;;23.24;67.00;98662.03;2091653;28;19982;-64
2023/06/08 00:44:40;;;;;;;;;;;;;;;23.25;67.01;98657.44;2092657;28;19936;-64
2023/06/08 00:45:41;;;;;;;;;;;;;;;23.25;67.14;98655.53;2092641;28;19930;-64
2023/06/08 00:46:42;;;;;;;;;;;;;;;23.24;67.41;98656.59;2092954;28;19928;-65
2023/06/08 00:47:44;;;;;;;;;;;;;;;23.24;67.22;98648.50;2085738;28;19925;-65
2023/06/08 00:48:46;;;;;;;;;;;;;;;23.24;66.99;98653.91;2092764;28;20651;-65
2023/06/08 00:49:47;;;;;;;;;;;;;;;23.23;67.19;98651.41;2092449;28;19920;-64
2023/06/08 00:50:50;;;;;;;;;;;;;;;23.23;67.25;98649.53;2092041;28;19924;-64
2023/06/08 00:51:51;;;;;;;;;;;;;;;23.24;66.98;98648.50;2091238;28;19963;-65
2023/06/08 00:52:52;;;;;;;;;;;;;;;23.25;67.24;98652.84;2091206;28;19937;-64
2023/06/08 00:53:53;;;;;;;;;;;;;;;23.26;67.04;98651.75;2086494;28;19931;-64
2023/06/08 00:54:56;;;;;;;;;;;;;;;23.25;66.82;98643.91;2091547;28;19924;-65
2023/06/08 00:55:57;;;;;;;;;;;;;;;23.25;66.95;98652.84;2090731;28;19920;-64
2023/06/08 00:57:00;;;;;;;;;;;;;;;23.24;67.26;98651.19;2091327;28;19973;-65
2023/06/08 00:58:02;;;;;;;;;;;;;;;23.25;67.09;98646.59;2090637;28;20015;-65
2023/06/08 00:59:03;;;;;;;;;;;;;;;23.24;67.49;98653.91;2090761;28;19920;-65
2023/06/08 01:00:05;;;;;;;;;;;;;;;23.22;67.10;98653.31;2087392;28;19920;-65
2023/06/08 01:01:11;;;;;;;;;;;;;;;23.22;67.33;98639.78;2091216;28;20525;-64
2023/06/08 01:02:12;;;;;;;;;;;;;;;23.24;67.14;98645.78;2089707;28;20375;-65
2023/06/08 01:03:14;;;;;;;;;;;;;;;23.23;67.07;98646.81;2090331;28;20406;-64
2023/06/08 01:04:17;;;;;;;;;;;;;;;23.24;66.93;98644.97;2090979;28;19974;-65
2023/06/08 01:05:18;;;;;;;;;;;;;;;23.23;66.98;98646.81;2091712;28;20003;-65
2023/06/08 01:06:20;;;;;;;;;;;;;;;23.24;66.93;98642.25;2086170;28;19935;-64
2023/06/08 01:07:25;;;;;;;;;;;;;;;23.23;66.83;98644.13;2091198;28;19924;-64
2023/06/08 01:08:33;;;;;;;;;;;;;;;23.23;66.73;98641.41;2089944;28;20391;-65
2023/06/08 01:09:36;;;;;;;;;;;;;;;23.24;66.77;98636.84;2090643;28;20280;-65
2023/06/08 01:10:42;;;;;;;;;;;;;;;23.24;67.24;98634.97;2089159;28;19927;-64
2023/06/08 01:11:50;;;;;;;;;;;;;;;23.23;67.29;98632.47;2083389;28;19970;-64
2023/06/08 01:12:56;;;;;;;;;;;;;;;23.22;67.71;98637.06;2085195;28;19959;-64
2023/06/08 01:14:00;;;;;;;;;;;;;;;23.23;67.29;98627.06;2089921;28;19925;-64
2023/06/08 01:15:07;;;;;;;;;;;;;;;23.24;67.24;98634.97;2090850;28;19921;-65
2023/06/08 01:16:10;;;;;;;;;;;;;;;23.23;67.10;98627.88;2091182;28;20027;-65
2023/06/08 01:17:14;;;;;;;;;;;;;;;23.23;66.96;98636.00;2090987;28;20017;-65
2023/06/08 01:18:17;;;;;;;;;;;;;;;23.24;66.77;98634.97;2091806;28;19964;-64
2023/06/08 01:19:38;;;;;;;;;;;;;;;23.24;66.96;98626.84;2086698;28;19928;-65
2023/06/08 01:20:47;;;;;;;;;;;;;;;23.23;67.49;98627.88;2089999;28;19928;-64
2023/06/08 01:21:56;;;;;;;;;;;;;;;23.23;67.88;98629.78;2090745;28;19972;-64
2023/06/08 01:22:59;;;;;;;;;;;;;;;23.20;67.79;98622.94;2092054;28;19928;-64
2023/06/08 01:24:10;;;;;;;;;;;;;;;23.22;67.25;98626.25;2090894;28;20023;-64
2023/06/08 01:25:11;;;;;;;;;;;;;;;23.21;67.57;98624.59;2086396;28;20337;-64
2023/06/08 01:26:15;;;;;;;;;;;;;;;23.23;67.64;98624.34;2089020;28;19936;-64
2023/06/08 01:27:16;;;;;;;;;;;;;;;23.23;66.91;98619.75;2089785;28;19932;-65
2023/06/08 01:28:17;;;;;;;;;;;;;;;23.24;67.50;98618.72;2090724;28;20376;-65
2023/06/08 01:29:21;;;;;;;;;;;;;;;23.24;66.79;98613.31;2091388;28;20003;-64
2023/06/08 01:30:23;;;;;;;;;;;;;;;23.24;67.23;98621.44;2091699;28;20283;-65
2023/06/08 01:31:23;;;;;;;;;;;;;;;23.25;67.58;98631.19;2085822;28;20015;-64
2023/06/08 01:32:24;;;;;;;;;;;;;;;23.23;67.69;98622.47;2091082;28;20061;-64
2023/06/08 01:33:28;;;;;;;;;;;;;;;23.25;67.53;98622.25;2089950;28;20035;-62
2023/06/08 01:34:29;;;;;;;;;;;;;;;23.23;67.22;98617.06;2088791;28;19936;-64
2023/06/08 01:35:30;;;;;;;;;;;;;;;23.22;67.00;98617.31;2089652;28;19952;-64
2023/06/08 01:36:39;;;;;;;;;;;;;;;23.24;66.96;98617.91;2091969;28;19931;-64
2023/06/08 01:37:45;;;;;;;;;;;;;;;23.23;67.07;98619.75;2085567;28;20019;-64
2023/06/08 01:38:49;;;;;;;;;;;;;;;23.23;66.73;98619.75;2094546;28;20023;-65
2023/06/08 01:39:56;;;;;;;;;;;;;;;23.24;67.05;98620.63;2091168;28;20011;-64
2023/06/08 01:41:01;;;;;;;;;;;;;;;23.24;67.37;98610.59;2091708;28;20472;-64
2023/06/08 01:42:03;;;;;;;;;;;;;;;23.22;67.31;98618.13;2091664;28;20011;-65
2023/06/08 01:43:06;;;;;;;;;;;;;;;23.22;67.31;98610.00;2086634;28;19931;-64
2023/06/08 01:44:09;;;;;;;;;;;;;;;23.23;67.16;98617.06;2083451;28;19986;-64
2023/06/08 01:45:12;;;;;;;;;;;;;;;23.23;67.14;98611.66;2090595;28;20011;-64
2023/06/08 01:46:14;;;;;;;;;;;;;;;23.24;67.16;98618.72;2090368;28;19967;-65
2023/06/08 01:47:17;;;;;;;;;;;;;;;23.23;67.76;98621.66;2089692;28;20040;-64
2023/06/08 01:48:19;;;;;;;;;;;;;;;23.21;67.04;98608.38;2090728;28;20020;-65
2023/06/08 01:49:21;;;;;;;;;;;;;;;23.24;66.90;98607.09;2089953;28;19938;-65
2023/06/08 01:50:23;;;;;;;;;;;;;;;23.23;66.96;98606.22;2086126;28;20008;-64
2023/06/08 01:51:25;;;;;;;;;;;;;;;23.25;66.71;98606.84;2090135;28;19921;-64
2023/06/08 01:52:25;;;;;;;;;;;;;;;23.26;67.40;98611.19;2090756;28;19962;-63
2023/06/08 01:53:27;;;;;;;;;;;;;;;23.24;67.81;98601.66;2090651;28;20142;-64
2023/06/08 01:54:27;;;;;;;;;;;;;;;23.24;66.75;98605.19;2092373;28;20352;-64
2023/06/08 01:55:30;;;;;;;;;;;;;;;23.24;67.17;98604.38;2090602;28;19924;-65
2023/06/08 01:56:31;;;;;;;;;;;;;;;23.25;66.95;98606.84;2085665;28;20003;-64
2023/06/08 01:57:32;;;;;;;;;;;;;;;23.24;67.78;98599.78;2089292;28;19931;-64
2023/06/08 01:58:32;;;;;;;;;;;;;;;23.22;67.60;98603.78;2090579;28;20408;-64
2023/06/08 01:59:34;;;;;;;;;;;;;;;23.22;67.77;98604.59;2090718;28;19921;-64
2023/06/08 02:00:35;;;;;;;;;;;;;;;23.23;67.57;98603.53;2090690;28;20007;-64
2023/06/08 02:01:36;;;;;;;;;;;;;;;23.22;67.16;98609.19;2091256;28;19924;-64
2023/06/08 02:02:37;;;;;;;;;;;;;;;23.23;67.17;98606.22;2087117;28;19928;-65
2023/06/08 02:03:38;;;;;;;;;;;;;;;23.24;67.02;98602.50;2089559;28;19981;-65
2023/06/08 02:04:39;;;;;;;;;;;;;;;23.26;67.19;98604.94;2090547;28;19928;-65
2023/06/08 02:05:40;;;;;;;;;;;;;;;23.26;66.92;98602.22;2094174;28;19929;-65
2023/06/08 02:06:41;;;;;;;;;;;;;;;23.23;66.90;98603.53;2092028;28;19977;-65
2023/06/08 02:07:43;;;;;;;;;;;;;;;23.23;67.02;98600.81;2089445;28;19924;-65
2023/06/08 02:08:43;;;;;;;;;;;;;;;23.25;67.02;98603.31;2087331;28;20027;-65
2023/06/08 02:09:45;;;;;;;;;;;;;;;23.23;67.22;98602.72;2086998;28;19920;-65
2023/06/08 02:10:47;;;;;;;;;;;;;;;23.24;66.90;98612.50;2091806;28;20423;-65
2023/06/08 02:11:48;;;;;;;;;;;;;;;23.22;66.94;98601.88;2090155;28;21240;-65
2023/06/08 02:12:49;;;;;;;;;;;;;;;23.23;67.18;98598.13;2091602;28;20003;-65
2023/06/08 02:13:50;;;;;;;;;;;;;;;23.22;67.58;98598.38;2091108;28;20344;-66
2023/06/08 02:14:51;;;;;;;;;;;;;;;23.23;66.78;98606.22;2084579;28;19924;-65
2023/06/08 02:15:53;;;;;;;;;;;;;;;23.22;66.96;98598.38;2090540;28;19977;-65
2023/06/08 02:16:55;;;;;;;;;;;;;;;23.23;67.04;98600.81;2090174;28;20500;-65
2023/06/08 02:17:58;;;;;;;;;;;;;;;23.22;67.26;98601.88;2090066;28;19920;-65
2023/06/08 02:19:01;;;;;;;;;;;;;;;23.21;67.51;98613.78;2092134;28;19921;-65
2023/06/08 02:20:06;;;;;;;;;;;;;;;23.23;66.95;98602.72;2089252;28;20425;-65
2023/06/08 02:21:06;;;;;;;;;;;;;;;23.22;67.08;98603.78;2082938;28;19954;-65
2023/06/08 02:22:08;;;;;;;;;;;;;;;23.24;66.99;98604.38;2092202;28;19924;-65
2023/06/08 02:23:08;;;;;;;;;;;;;;;23.23;66.93;98600.81;2089351;28;19978;-65
2023/06/08 02:24:10;;;;;;;;;;;;;;;23.25;66.92;98604.13;2091249;28;19928;-65
2023/06/08 02:25:11;;;;;;;;;;;;;;;23.24;66.65;98602.50;2089654;28;20568;-64
2023/06/08 02:26:13;;;;;;;;;;;;;;;23.24;66.79;98607.09;2090539;28;20253;-65
2023/06/08 02:27:14;;;;;;;;;;;;;;;23.24;66.90;98601.66;2086092;28;19928;-65
2023/06/08 02:28:16;;;;;;;;;;;;;;;23.23;66.92;98603.53;2088498;28;19978;-65
2023/06/08 02:29:16;;;;;;;;;;;;;;;23.24;66.98;98598.97;2088868;28;20347;-65
2023/06/08 02:30:17;;;;;;;;;;;;;;;23.23;66.91;98603.53;2090637;28;19966;-65
2023/06/08 02:31:18;;;;;;;;;;;;;;;23.24;66.96;98604.38;2089530;28;19924;-65
2023/06/08 02:32:19;;;;;;;;;;;;;;;23.22;67.35;98598.38;2090653;28;19993;-65
2023/06/08 02:33:20;;;;;;;;;;;;;;;23.21;67.38;98592.13;2084457;28;19924;-65
2023/06/08 02:34:23;;;;;;;;;;;;;;;23.22;66.75;98601.06;2091675;28;19921;-65
2023/06/08 02:35:23;;;;;;;;;;;;;;;23.20;67.04;98594.00;2090407;28;19921;-65
2023/06/08 02:36:25;;;;;;;;;;;;;;;23.20;67.18;98596.69;2085078;28;20348;-65
2023/06/08 02:37:25;;;;;;;;;;;;;;;23.20;66.55;98601.28;2089833;28;19927;-63
2023/06/08 02:38:28;;;;;;;;;;;;;;;23.22;66.85;98601.88;2083866;28;19939;-65
2023/06/08 02:39:28;;;;;;;;;;;;;;;23.20;67.01;98585.88;2083019;28;19935;-65
2023/06/08 02:40:30;;;;;;;;;;;;;;;23.21;66.92;98597.53;2085074;28;20016;-65
2023/06/08 02:41:32;;;;;;;;;;;;;;;23.22;66.88;98601.06;2087688;28;19924;-65
2023/06/08 02:42:33;;;;;;;;;;;;;;;23.22;66.86;98598.38;2087389;28;20016;-65
2023/06/08 02:43:34;;;;;;;;;;;;;;;23.23;66.70;98594.59;2084459;28;20126;-65
2023/06/08 02:44:35;;;;;;;;;;;;;;;23.22;66.99;98599.19;2085070;28;19928;-65
2023/06/08 02:45:36;;;;;;;;;;;;;;;23.23;66.53;98598.13;2084182;28;20307;-65
2023/06/08 02:46:38;;;;;;;;;;;;;;;23.22;66.94;98593.78;2084117;28;19928;-65
2023/06/08 02:47:39;;;;;;;;;;;;;;;23.22;66.60;98591.06;2089591;28;19931;-64
2023/06/08 02:48:40;;;;;;;;;;;;;;;23.23;66.75;98595.41;2087176;28;19950;-65
2023/06/08 02:49:41;;;;;;;;;;;;;;;23.23;66.79;98591.88;2089630;28;20026;-65
2023/06/08 02:50:42;;;;;;;;;;;;;;;23.23;66.62;98595.41;2088316;28;19920;-65
2023/06/08 02:51:43;;;;;;;;;;;;;;;23.24;66.63;98594.38;2087415;28;19973;-65
2023/06/08 02:52:44;;;;;;;;;;;;;;;23.23;66.74;98587.28;2085974;28;21568;-65
2023/06/08 02:53:45;;;;;;;;;;;;;;;23.22;67.26;98588.38;2088913;28;20420;-65
2023/06/08 02:54:46;;;;;;;;;;;;;;;23.22;66.58;98587.53;2086608;28;19932;-65
2023/06/08 02:55:50;;;;;;;;;;;;;;;23.22;66.68;98592.97;2089897;28;20002;-65
2023/06/08 02:56:53;;;;;;;;;;;;;;;23.22;66.58;98590.25;2087138;28;20137;-65
2023/06/08 02:57:54;;;;;;;;;;;;;;;23.22;66.67;98593.78;2087050;28;19928;-65
2023/06/08 02:58:56;;;;;;;;;;;;;;;23.19;66.69;98586.94;2087405;28;20005;-65
2023/06/08 02:59:57;;;;;;;;;;;;;;;23.20;66.78;98593.19;2089612;28;19929;-64
2023/06/08 03:01:00;;;;;;;;;;;;;;;23.20;66.61;98595.88;2087731;28;20034;-65
2023/06/08 03:02:01;;;;;;;;;;;;;;;23.20;66.94;98595.88;2086340;28;20736;-65
2023/06/08 03:03:02;;;;;;;;;;;;;;;23.19;66.91;98605.06;2084679;28;19973;-65
2023/06/08 03:04:03;;;;;;;;;;;;;;;23.21;66.80;98602.97;2086224;28;20019;-65
2023/06/08 03:05:04;;;;;;;;;;;;;;;23.23;67.42;98608.13;2087197;28;19920;-65
2023/06/08 03:06:05;;;;;;;;;;;;;;;23.20;66.82;98604.00;2087350;28;19924;-65
2023/06/08 03:07:09;;;;;;;;;;;;;;;23.20;66.66;98606.69;2085369;28;19930;-65
2023/06/08 03:08:09;;;;;;;;;;;;;;;23.19;67.03;98605.06;2084693;28;19929;-65
2023/06/08 03:09:11;;;;;;;;;;;;;;;23.18;67.03;98608.84;2086797;28;19924;-65
2023/06/08 03:10:11;;;;;;;;;;;;;;;23.18;66.80;98604.25;2082960;28;20445;-65
2023/06/08 03:11:13;;;;;;;;;;;;;;;23.20;66.94;98612.13;2085626;28;19921;-65
2023/06/08 03:12:15;;;;;;;;;;;;;;;23.18;66.97;98604.25;2088649;28;20117;-65
2023/06/08 03:13:16;;;;;;;;;;;;;;;23.20;66.77;98606.69;2087559;28;19982;-64
2023/06/08 03:14:18;;;;;;;;;;;;;;;23.20;67.06;98601.28;2084522;28;19928;-65
2023/06/08 03:15:22;;;;;;;;;;;;;;;23.20;67.03;98604.00;2087687;28;19920;-64
2023/06/08 03:16:23;;;;;;;;;;;;;;;23.21;66.83;98608.38;2085532;28;20383;-64
2023/06/08 03:17:24;;;;;;;;;;;;;;;23.20;66.74;98598.59;2086811;28;19928;-64
2023/06/08 03:18:25;;;;;;;;;;;;;;;23.21;67.20;98602.97;2089357;28;20336;-65
2023/06/08 03:19:30;;;;;;;;;;;;;;;23.21;66.76;98608.38;2088912;28;19935;-63
2023/06/08 03:20:30;;;;;;;;;;;;;;;23.20;67.00;98604.00;2090998;28;19934;-65
2023/06/08 03:21:32;;;;;;;;;;;;;;;23.19;67.87;98610.47;2088718;28;20440;-64
2023/06/08 03:22:34;;;;;;;;;;;;;;;23.20;66.89;98609.41;2086229;28;20371;-64
2023/06/08 03:23:37;;;;;;;;;;;;;;;23.20;66.96;98606.69;2088317;28;19925;-64
2023/06/08 03:24:38;;;;;;;;;;;;;;;23.20;67.33;98606.69;2090149;28;19939;-64
2023/06/08 03:25:39;;;;;;;;;;;;;;;23.18;67.37;98606.13;2089869;28;19929;-64
2023/06/08 03:26:40;;;;;;;;;;;;;;;23.18;68.01;98598.84;2089698;28;20043;-64
2023/06/08 03:27:43;;;;;;;;;;;;;;;23.18;67.70;98603.44;2090513;28;19932;-64
2023/06/08 03:28:43;;;;;;;;;;;;;;;23.17;67.47;98608.00;2085759;28;19920;-64
2023/06/08 03:29:45;;;;;;;;;;;;;;;23.18;67.69;98609.66;2090080;28;19982;-64
2023/06/08 03:30:46;;;;;;;;;;;;;;;23.18;67.57;98608.84;2091329;28;20311;-64
2023/06/08 03:31:47;;;;;;;;;;;;;;;23.20;67.29;98606.69;2091092;28;19924;-64
2023/06/08 03:32:48;;;;;;;;;;;;;;;23.19;67.72;98611.31;2092645;28;20655;-64
2023/06/08 03:33:50;;;;;;;;;;;;;;;23.19;67.02;98603.19;2089174;28;19928;-64
2023/06/08 03:34:50;;;;;;;;;;;;;;;23.20;67.09;98602.09;2085734;28;21986;-64
2023/06/08 03:35:53;;;;;;;;;;;;;;;23.19;67.75;98611.31;2086312;28;19978;-64
2023/06/08 03:36:55;;;;;;;;;;;;;;;23.18;67.29;98601.53;2090422;28;19920;-65
2023/06/08 03:37:55;;;;;;;;;;;;;;;23.18;67.30;98608.84;2090153;28;20073;-64
2023/06/08 03:38:56;;;;;;;;;;;;;;;23.18;67.44;98604.25;2089395;28;20304;-64
2023/06/08 03:39:57;;;;;;;;;;;;;;;23.19;67.35;98610.47;2090495;28;19924;-65
2023/06/08 03:40:58;;;;;;;;;;;;;;;23.19;67.06;98602.38;2088947;28;20724;-64
2023/06/08 03:41:59;;;;;;;;;;;;;;;23.19;67.44;98610.47;2084276;28;20003;-65
2023/06/08 03:43:02;;;;;;;;;;;;;;;23.18;67.46;98603.44;2089750;28;19932;-65
2023/06/08 03:44:02;;;;;;;;;;;;;;;23.18;67.23;98611.56;2089512;28;20177;-64
2023/06/08 03:45:04;;;;;;;;;;;;;;;23.18;67.11;98608.84;2089924;28;19975;-64
2023/06/08 03:46:04;;;;;;;;;;;;;;;23.17;67.42;98615.28;2090552;28;20448;-64
2023/06/08 03:47:08;;;;;;;;;;;;;;;23.18;67.07;98614.25;2089905;28;19924;-65
2023/06/08 03:48:09;;;;;;;;;;;;;;;23.19;67.02;98614.00;2086718;28;20019;-64
2023/06/08 03:49:10;;;;;;;;;;;;;;;23.18;68.18;98615.06;2089727;28;20131;-64
2023/06/08 03:50:11;;;;;;;;;;;;;;;23.17;67.44;98609.88;2089993;28;20011;-65
2023/06/08 03:51:13;;;;;;;;;;;;;;;23.16;67.17;98614.47;2090457;28;19924;-64
2023/06/08 03:52:13;;;;;;;;;;;;;;;23.15;67.30;98612.84;2087938;28;19928;-64
2023/06/08 03:53:15;;;;;;;;;;;;;;;23.18;67.13;98611.56;2089294;28;19928;-64
2023/06/08 03:54:15;;;;;;;;;;;;;;;23.18;67.39;98608.84;2082938;28;19924;-64
2023/06/08 03:55:17;;;;;;;;;;;;;;;23.18;67.35;98614.25;2090323;28;19973;-64
2023/06/08 03:56:18;;;;;;;;;;;;;;;23.18;67.16;98600.72;2090398;28;19920;-64
2023/06/08 03:57:20;;;;;;;;;;;;;;;23.17;67.24;98607.19;2089796;28;20447;-64
2023/06/08 03:58:23;;;;;;;;;;;;;;;23.17;67.88;98604.47;2090167;28;19928;-65
2023/06/08 03:59:24;;;;;;;;;;;;;;;23.18;67.19;98611.56;2089632;28;20506;-64
2023/06/08 04:00:25;;;;;;;;;;;;;;;23.17;67.00;98607.19;2086541;28;20011;-64
2023/06/08 04:01:28;;;;;;;;;;;;;;;23.16;67.99;98610.94;2089733;28;20011;-64
2023/06/08 04:02:29;;;;;;;;;;;;;;;23.15;67.28;98606.56;2088554;28;19920;-64
2023/06/08 04:03:31;;;;;;;;;;;;;;;23.16;67.26;98605.53;2090174;28;20423;-65
2023/06/08 04:04:32;;;;;;;;;;;;;;;23.17;67.04;98607.19;2090352;28;19924;-64
2023/06/08 04:05:34;;;;;;;;;;;;;;;23.15;67.19;98607.44;2089526;28;19986;-64
2023/06/08 04:06:38;;;;;;;;;;;;;;;23.15;67.42;98610.13;2086989;28;20263;-64
2023/06/08 04:07:40;;;;;;;;;;;;;;;23.13;67.59;98606.00;2091037;28;19959;-64
2023/06/08 04:08:41;;;;;;;;;;;;;;;23.13;67.24;98606.81;2092015;28;19971;-64
2023/06/08 04:09:43;;;;;;;;;;;;;;;23.13;67.29;98606.00;2090435;28;19931;-64
2023/06/08 04:10:43;;;;;;;;;;;;;;;23.14;67.86;98608.47;2090973;28;19963;-64
2023/06/08 04:11:44;;;;;;;;;;;;;;;23.15;67.27;98606.56;2088447;28;20081;-64
2023/06/08 04:12:45;;;;;;;;;;;;;;;23.15;67.20;98614.69;2089030;28;24904;-65
2023/06/08 04:13:48;;;;;;;;;;;;;;;23.16;67.12;98614.47;2086053;28;19935;-65
2023/06/08 04:14:49;;;;;;;;;;;;;;;23.15;67.82;98598.47;2089533;28;19973;-64
2023/06/08 04:15:50;;;;;;;;;;;;;;;23.16;67.57;98608.25;2088983;28;19974;-65
2023/06/08 04:16:51;;;;;;;;;;;;;;;23.16;67.90;98610.94;2090753;28;19935;-65
2023/06/08 04:17:53;;;;;;;;;;;;;;;23.19;67.47;98605.06;2090028;28;19967;-65
2023/06/08 04:18:54;;;;;;;;;;;;;;;23.19;67.78;98605.06;2092467;28;19928;-64
2023/06/08 04:19:55;;;;;;;;;;;;;;;23.19;67.69;98602.38;2090538;28;19920;-64
2023/06/08 04:20:56;;;;;;;;;;;;;;;23.18;67.63;98606.13;2091466;28;20011;-64
2023/06/08 04:21:59;;;;;;;;;;;;;;;23.18;66.95;98606.13;2090678;28;19924;-65
2023/06/08 04:23:00;;;;;;;;;;;;;;;23.16;67.60;98605.53;2090747;28;19924;-64
2023/06/08 04:24:01;;;;;;;;;;;;;;;23.15;66.94;98602.00;2091042;28;19985;-64
2023/06/08 04:25:02;;;;;;;;;;;;;;;23.13;67.29;98606.81;2090339;28;20809;-65
2023/06/08 04:26:04;;;;;;;;;;;;;;;23.14;66.83;98608.47;2085768;28;19924;-64
2023/06/08 04:27:05;;;;;;;;;;;;;;;23.13;67.21;98608.72;2089127;28;20076;-65
2023/06/08 04:28:07;;;;;;;;;;;;;;;23.12;67.58;98607.06;2091206;28;20399;-64
2023/06/08 04:29:09;;;;;;;;;;;;;;;23.13;67.17;98606.81;2091262;28;19920;-64
2023/06/08 04:30:11;;;;;;;;;;;;;;;23.13;67.17;98606.00;2091499;28;19928;-64
2023/06/08 04:31:11;;;;;;;;;;;;;;;23.10;67.39;98611.88;2089326;28;20429;-65
2023/06/08 04:32:13;;;;;;;;;;;;;;;23.08;67.52;98608.59;2086278;28;20465;-64
2023/06/08 04:33:13;;;;;;;;;;;;;;;23.08;67.18;98605.88;2089498;28;20446;-64
2023/06/08 04:34:15;;;;;;;;;;;;;;;23.09;67.45;98604.81;2090283;28;19924;-64
2023/06/08 04:35:16;;;;;;;;;;;;;;;23.08;67.41;98601.28;2082813;28;19977;-65
2023/06/08 04:36:18;;;;;;;;;;;;;;;23.06;67.39;98605.28;2086849;28;19924;-64
2023/06/08 04:37:18;;;;;;;;;;;;;;;23.06;67.61;98600.69;2087668;28;19920;-63
2023/06/08 04:38:20;;;;;;;;;;;;;;;23.07;67.52;98612.38;2083870;28;19932;-65
2023/06/08 04:39:21;;;;;;;;;;;;;;;23.11;67.47;98606.22;2091118;28;20378;-66
2023/06/08 04:40:25;;;;;;;;;;;;;;;23.14;67.32;98607.66;2092883;28;19939;-64
2023/06/08 04:41:29;;;;;;;;;;;;;;;23.19;67.08;98607.78;2091029;28;19928;-61
2023/06/08 04:42:33;;;;;;;;;;;;;;;23.19;66.92;98605.06;2090721;28;20031;-63
2023/06/08 04:43:34;;;;;;;;;;;;;;;23.17;66.89;98602.59;2089351;28;20398;-63
2023/06/08 04:44:38;;;;;;;;;;;;;;;23.19;66.97;98605.06;2084644;28;20337;-65
2023/06/08 04:45:38;;;;;;;;;;;;;;;23.16;67.34;98611.78;2087400;28;19974;-65
2023/06/08 04:46:42;;;;;;;;;;;;;;;23.16;67.23;98605.53;2089538;28;19928;-65
2023/06/08 04:47:43;;;;;;;;;;;;;;;23.13;67.21;98604.13;2088572;28;19969;-65
2023/06/08 04:48:45;;;;;;;;;;;;;;;23.13;67.19;98608.72;2082815;28;20356;-64
2023/06/08 04:49:47;;;;;;;;;;;;;;;23.10;67.40;98610.00;2086694;28;19929;-64
2023/06/08 04:50:50;;;;;;;;;;;;;;;23.10;67.33;98601.06;2080255;28;19935;-64
2023/06/08 04:51:54;;;;;;;;;;;;;;;23.06;67.19;98594.47;2084766;28;20021;-64
2023/06/08 04:52:55;;;;;;;;;;;;;;;23.06;66.93;98603.41;2086197;28;19981;-63
2023/06/08 04:53:57;;;;;;;;;;;;;;;23.08;67.09;98605.88;2083552;28;19981;-62
2023/06/08 04:55:01;;;;;;;;;;;;;;;23.09;67.22;98607.53;2085665;28;19985;-63
2023/06/08 04:56:03;;;;;;;;;;;;;;;23.08;67.21;98606.69;2089469;28;19943;-63
2023/06/08 04:57:03;;;;;;;;;;;;;;;23.06;66.80;98603.41;2087742;28;19924;-63
2023/06/08 04:58:05;;;;;;;;;;;;;;;23.07;67.26;98606.94;2086995;28;19935;-63
2023/06/08 04:59:06;;;;;;;;;;;;;;;23.06;66.95;98603.41;2085434;28;20323;-64
2023/06/08 05:00:10;;;;;;;;;;;;;;;23.04;67.30;98602.81;2079175;28;20460;-62
2023/06/08 05:01:10;;;;;;;;;;;;;;;23.04;67.08;98601.97;2082119;28;19936;-64
2023/06/08 05:02:12;;;;;;;;;;;;;;;23.02;67.23;98604.94;2083689;28;19942;-64
2023/06/08 05:03:12;;;;;;;;;;;;;;;23.03;67.01;98605.75;2083054;28;19924;-63
2023/06/08 05:04:14;;;;;;;;;;;;;;;23.01;67.08;98607.84;2084430;28;19950;-63
2023/06/08 05:05:15;;;;;;;;;;;;;;;23.00;67.02;98604.34;2085631;28;20544;-64
2023/06/08 05:06:16;;;;;;;;;;;;;;;23.02;67.26;98609.53;2084778;28;20007;-63
2023/06/08 05:07:17;;;;;;;;;;;;;;;23.01;67.21;98607.84;2086262;28;19920;-63
2023/06/08 05:08:18;;;;;;;;;;;;;;;23.02;67.09;98609.53;2085744;28;20687;-63
2023/06/08 05:09:19;;;;;;;;;;;;;;;23.01;66.93;98607.84;2090090;28;19981;-64
2023/06/08 05:10:20;;;;;;;;;;;;;;;23.00;67.15;98611.63;2089233;28;20537;-64
2023/06/08 05:11:22;;;;;;;;;;;;;;;22.97;67.10;98611.03;2090201;28;19975;-64
2023/06/08 05:12:23;;;;;;;;;;;;;;;23.00;66.83;98603.53;2087648;28;19968;-64
2023/06/08 05:13:24;;;;;;;;;;;;;;;22.97;66.94;98607.50;2087244;28;20023;-63
2023/06/08 05:14:26;;;;;;;;;;;;;;;23.01;66.84;98607.84;2081286;28;20668;-64
2023/06/08 05:15:28;;;;;;;;;;;;;;;23.04;66.69;98601.97;2089657;28;19999;-64
2023/06/08 05:16:30;;;;;;;;;;;;;;;23.08;66.61;98614.81;2087777;28;19932;-63
2023/06/08 05:17:30;;;;;;;;;;;;;;;23.10;66.27;98611.88;2085972;28;19924;-63
2023/06/08 05:18:32;;;;;;;;;;;;;;;23.11;66.15;98606.22;2089018;28;20579;-63
2023/06/08 05:19:32;;;;;;;;;;;;;;;23.10;66.07;98614.59;2088990;28;20003;-63
2023/06/08 05:20:34;;;;;;;;;;;;;;;23.12;65.94;98612.47;2083489;28;19927;-62
2023/06/08 05:21:36;;;;;;;;;;;;;;;23.09;66.09;98608.34;2087847;28;19920;-63
2023/06/08 05:22:38;;;;;;;;;;;;;;;23.10;65.96;98611.88;2089381;28;19928;-64